Flight Track Log - Related Links

Times and Time Zones

All times are in EDT time to prevent confusion due to time zone crossing. See the MPE9135 flight status page for this flight to view local times or setup timezone preferences in your user account.

Time Position Orientation Groundspeed Altitude Reporting Facility
EDT Latitude Longitude Course Direction KTS MPH feet Rate Location/Type
Wed 06:39:28 PM 49.9500 -97.3000 327° Northwest 200 230 3,800  Level Winnipeg Center
Wed 06:40:28 PM 50.0000 -97.3333 337° Northwest 250 288 5,900 2,650 Climbing Winnipeg Center
Wed 06:41:28 PM 50.0667 -97.3500 351° North 260 299 9,100 2,550 Climbing Winnipeg Center
Wed 06:42:28 PM 50.1333 -97.4167 327° Northwest 290 334 11,000 2,100 Climbing Winnipeg Center
Wed 06:43:28 PM 50.2167 -97.4833 333° Northwest 330 380 13,300 2,550 Climbing Winnipeg Center
Wed 06:44:28 PM 50.3000 -97.5667 327° Northwest 350 403 16,100 2,319 Climbing Winnipeg Center
Wed 06:45:27 PM 50.3833 -97.6500 327° Northwest 360 414 17,900 2,218 Climbing Winnipeg Center
Wed 06:46:27 PM 50.4833 -97.7333 332° Northwest 380 437 20,500 2,350 Climbing Winnipeg Center
Wed 06:47:27 PM 50.5667 -97.8167 328° Northwest 390 449 22,600 1,900 Climbing Winnipeg Center
Wed 06:48:27 PM 50.6833 -97.8833 340° North 410 472 24,300 1,700 Climbing Winnipeg Center
Wed 06:49:27 PM 50.7833 -98.0000 324° Northwest 420 483 26,000 1,600 Climbing Winnipeg Center
Wed 06:50:27 PM 50.8833 -98.0833 332° Northwest 440 506 27,500 1,600 Climbing Winnipeg Center
Wed 06:51:27 PM 51.0000 -98.1833 332° Northwest 450 518 29,200 1,950 Climbing Winnipeg Center
Wed 06:52:27 PM 51.1167 -98.3000 328° Northwest 450 518 31,400 1,750 Climbing Winnipeg Center
Wed 06:53:27 PM 51.2167 -98.3833 332° Northwest 440 506 32,700 1,300 Climbing Winnipeg Center
Wed 06:54:27 PM 51.3333 -98.5000 328° Northwest 450 518 34,000 1,350 Climbing Winnipeg Center
Wed 06:55:27 PM 51.4167 -98.5833 328° Northwest 440 506 35,400 1,000 Climbing Winnipeg Center
Wed 06:56:27 PM 51.5167 -98.6833 328° Northwest 440 506 36,000 300 Climbing Winnipeg Center
Wed 06:57:27 PM 51.6333 -98.7667 336° Northwest 440 506 36,000  Level Winnipeg Center
Wed 06:58:27 PM 51.7333 -98.8833 324° Northwest 440 506 36,000  Level Winnipeg Center
Wed 06:59:27 PM 51.8500 -98.9667 336° Northwest 430 495 36,000  Level Winnipeg Center
Wed 07:00:27 PM 51.9500 -99.0833 324° Northwest 440 506 36,000  Level Winnipeg Center
Wed 07:01:27 PM 52.0500 -99.1667 333° Northwest 430 495 36,000  Level Winnipeg Center
Wed 07:02:27 PM 52.1500 -99.2833 324° Northwest 430 495 36,000  Level Winnipeg Center
Wed 07:03:27 PM 52.2667 -99.3667 336° Northwest 430 495 36,000  Level Winnipeg Center
Wed 07:04:27 PM 52.3667 -99.4833 325° Northwest 430 495 36,000  Level Winnipeg Center
Wed 07:05:27 PM 52.4833 -99.5833 332° Northwest 430 495 36,000  Level Winnipeg Center
Wed 07:06:27 PM 52.5833 -99.7000 325° Northwest 430 495 36,000  Level Winnipeg Center
Wed 07:07:27 PM 52.6667 -99.7833 329° Northwest 430 495 36,000  Level Winnipeg Center
Wed 07:08:27 PM 52.7833 -99.9000 329° Northwest 430 495 36,000  Level Winnipeg Center
Wed 07:09:27 PM 52.8833 -99.9833 333° Northwest 440 506 36,000  Level Winnipeg Center
Wed 07:10:27 PM 52.9833 -100.1000 325° Northwest 440 506 36,000  Level Winnipeg Center
Wed 07:11:27 PM 53.0833 -100.2000 329° Northwest 440 506 36,000  Level Winnipeg Center
Wed 07:12:27 PM 53.2000 -100.2833 337° Northwest 440 506 36,000  Level Winnipeg Center
Wed 07:13:27 PM 53.3000 -100.4167 321° Northwest 430 495 36,000  Level Winnipeg Center
Wed 07:14:28 PM 53.4000 -100.5333 325° Northwest 440 506 36,000  Level Winnipeg Center
Wed 07:15:27 PM 53.5000 -100.6167 334° Northwest 430 495 36,000  Level Winnipeg Center
Wed 07:16:27 PM 53.6000 -100.7500 322° Northwest 430 495 36,000  Level Winnipeg Center
Wed 07:17:27 PM 53.7000 -100.8333 334° Northwest 430 495 36,000  Level Winnipeg Center
Wed 07:18:27 PM 53.8167 -100.9333 333° Northwest 440 506 36,000  Level Winnipeg Center
Wed 07:19:27 PM 53.9167 -101.0500 326° Northwest 430 495 36,000  Level Winnipeg Center
Wed 07:20:27 PM 54.0000 -101.1833 317° Northwest 420 483 36,000  Level Winnipeg Center
Wed 07:21:12 PM 54.0333 -101.2667 304° West 410 472 36,000  Level Edmonton Center
Wed 07:22:12 PM 54.1167 -101.4167 313° West 410 472 36,000  Level Edmonton Center
Wed 07:22:27 PM 54.1333 -101.4833 293° West 410 472 36,000  Level Winnipeg Center
Wed 07:23:27 PM 54.2000 -101.6667 302° West 420 483 36,000  Level Winnipeg Center
Wed 07:24:27 PM 54.2833 -101.8167 314° West 420 483 36,000  Level Winnipeg Center
Wed 07:25:12 PM 54.3333 -101.8833 322° Northwest 410 472 36,000  Level Edmonton Center
Wed 07:26:12 PM 54.4000 -102.0500 305° West 410 472 36,000  Level Edmonton Center
Wed 07:26:27 PM 54.4333 -102.1167 311° West 420 483 36,000  Level Winnipeg Center
Wed 07:27:27 PM 54.5000 -102.2667 307° West 420 483 36,000  Level Winnipeg Center
Wed 07:28:12 PM 54.5333 -102.3667 300° West 410 472 36,000  Level Edmonton Center
Wed 07:28:27 PM 54.5833 -102.4333 322° Northwest 420 483 36,000  Level Winnipeg Center
Wed 07:29:27 PM 54.6333 -102.6000 297° West 410 472 36,000  Level Winnipeg Center
Wed 07:30:27 PM 54.7167 -102.7667 311° West 410 472 36,000  Level Winnipeg Center
Wed 07:31:27 PM 54.7833 -102.9167 308° West 410 472 36,000  Level Winnipeg Center
Wed 07:32:27 PM 54.8500 -103.0667 308° West 410 472 36,000  Level Winnipeg Center
Wed 07:33:27 PM 54.9333 -103.2333 311° West 410 472 36,000  Level Winnipeg Center
Wed 07:34:27 PM 54.9833 -103.3833 300° West 410 472 36,000  Level Winnipeg Center
Wed 07:35:27 PM 55.0667 -103.5667 308° West 410 472 36,000  Level Winnipeg Center
Wed 07:36:27 PM 55.1333 -103.7333 305° West 410 472 36,000  Level Winnipeg Center
Wed 07:37:12 PM 55.1667 -103.8000 311° West 400 460 36,000  Level Edmonton Center
Wed 07:37:27 PM 55.2000 -103.8833 305° West 410 472 36,000  Level Winnipeg Center
Wed 07:38:27 PM 55.2667 -104.0500 305° West 410 472 36,000  Level Winnipeg Center
Wed 07:39:27 PM 55.3333 -104.1833 311° West 410 472 36,000  Level Winnipeg Center
Wed 07:40:27 PM 55.4000 -104.3333 308° West 410 472 36,000  Level Winnipeg Center
Wed 07:41:12 PM 55.4333 -104.4500 297° West 400 460 36,000  Level Edmonton Center
Wed 07:41:27 PM 55.4500 -104.5333 289° West 400 460 36,000  Level Winnipeg Center
Wed 07:42:27 PM 55.5333 -104.6833 315° West 400 460 36,000  Level Winnipeg Center
Wed 07:43:27 PM 55.5833 -104.8500 298° West 400 460 36,000  Level Winnipeg Center
Wed 07:44:27 PM 55.6667 -104.9833 318° Northwest 400 460 36,000  Level Winnipeg Center
Wed 07:45:27 PM 55.7167 -105.1833 294° West 400 460 36,000  Level Winnipeg Center
Wed 07:46:27 PM 55.8000 -105.3333 315° West 400 460 36,000  Level Winnipeg Center
Wed 07:47:27 PM 55.8500 -105.4667 304° West 400 460 36,000  Level Winnipeg Center
Wed 07:48:27 PM 55.9000 -105.6333 298° West 400 460 36,000  Level Winnipeg Center
Wed 07:49:27 PM 55.9833 -105.8000 312° West 400 460 36,000  Level Winnipeg Center
Wed 07:50:27 PM 56.0333 -105.9667 298° West 390 449 36,000  Level Winnipeg Center
Wed 07:51:27 PM 56.1000 -106.1333 306° West 390 449 36,000  Level Winnipeg Center
Wed 07:52:12 PM 56.1333 -106.2167 306° West 380 437 36,000  Level Edmonton Center
Wed 07:53:12 PM 56.1833 -106.3667 301° West 380 437 36,000  Level Edmonton Center
Wed 07:54:12 PM 56.2333 -106.5500 296° West 380 437 36,000  Level Edmonton Center
Wed 07:55:12 PM 56.3000 -106.7000 309° West 380 437 36,000  Level Edmonton Center
Wed 07:56:12 PM 56.3500 -106.8833 296° West 380 437 36,000  Level Edmonton Center
Wed 07:57:12 PM 56.4167 -107.0500 306° West 380 437 36,000  Level Edmonton Center
Wed 07:58:12 PM 56.4667 -107.2000 301° West 380 437 36,000  Level Edmonton Center
Wed 07:59:12 PM 56.5167 -107.3500 301° West 380 437 36,000  Level Edmonton Center
Wed 08:00:12 PM 56.5667 -107.5500 294° West 380 437 36,000  Level Edmonton Center
Wed 08:01:12 PM 56.6167 -107.7000 301° West 380 437 36,000  Level Edmonton Center
Wed 08:02:12 PM 56.6667 -107.8667 299° West 370 426 36,000  Level Edmonton Center
Wed 08:03:12 PM 56.6833 -108.0833 278° West 380 437 36,000  Level Edmonton Center
Wed 08:04:12 PM 56.6667 -108.2667 261° West 380 437 36,000  Level Edmonton Center
Wed 08:05:12 PM 56.6667 -108.4833 270° West 380 437 36,000 -1,700 Level Edmonton Center
Wed 08:06:12 PM 56.6833 -108.6667 279° West 380 437 32,600 -3,600 Descending Edmonton Center
Wed 08:07:12 PM 56.6667 -108.8833 262° West 390 449 28,800 -3,400 Descending Edmonton Center
Wed 08:08:12 PM 56.6667 -109.0667 270° West 390 449 25,800 -2,800 Descending Edmonton Center
Wed 08:09:12 PM 56.6667 -109.2500 270° West 380 437 23,200 -2,600 Descending Edmonton Center
Wed 08:10:12 PM 56.6667 -109.4333 270° West 360 414 20,600 -2,450 Descending Edmonton Center
Wed 08:11:12 PM 56.6667 -109.6167 270° West 350 403 18,300 -2,250 Descending Edmonton Center
Wed 08:12:12 PM 56.6667 -109.7833 270° West 330 380 16,100 -2,300 Descending Edmonton Center
Wed 08:13:12 PM 56.6500 -109.9667 261° West 330 380 13,700 -2,500 Descending Edmonton Center
Wed 08:14:12 PM 56.6500 -110.1167 270° West 320 368 11,100 -1,700 Descending Edmonton Center
Wed 08:15:12 PM 56.6500 -110.2667 270° West 300 345 10,300 -900 Descending Edmonton Center
Wed 08:16:12 PM 56.6500 -110.4000 270° West 250 288 9,300 -1,100 Descending Edmonton Center
Wed 08:17:12 PM 56.6500 -110.5167 270° West 230 265 8,100 -1,200 Descending Edmonton Center
Wed 08:18:12 PM 56.6333 -110.6333 255° West 230 265 6,900 -1,050 Descending Edmonton Center
Wed 08:19:12 PM 56.6333 -110.7667 270° West 230 265 6,000 -900 Descending Edmonton Center
Wed 08:20:12 PM 56.6333 -110.8500 270° West 210 242 5,100 -1,000 Descending Edmonton Center
Wed 08:21:12 PM 56.6333 -110.9833 270° West 210 242 4,000 -1,050 Descending Edmonton Center
Wed 08:22:12 PM 56.6333 -111.0667 270° West 190 219 3,000 -900 Descending Edmonton Center
Wed 08:23:12 PM 56.6333 -111.1333 270° West 160 184 2,200 -600 Descending Edmonton Center
Wed 08:25:12 PM 56.6500 -111.2667 283° West 130 150 1,200 -500 Descending Edmonton Center
Wed 08:27:00 PM 56.6500 -111.2167 294° West  Level FlightAware Approximate
Wed 08:34:00 PM 56.6533 -111.2219 294° West  Level Estimated
Wed 08:35:00 PM 56.6500 -111.2167 294° West  Level FlightAware Approximate
Wed 08:36:00 PM 56.6533 -111.2219 294° West  Level Estimated
Wed 08:37:00 PM 56.6500 -111.2167 294° West  Level FlightAware Approximate
Wed 08:38:00 PM 56.6533 -111.2219 294° West  Level Estimated

Login

Don't have an account? Register now (free) for customized features, flight alerts, and more!